SKBO/BOG METAR and TAF weather

Enter ICAO airport designator
Station Type Date Time Source
SKBO METAR 2020/01/24 03:00 UTC NOAA

SKBO 240300Z 33007KT 9999 SCT020 13/10 A3037 NOSIG


Station Type Date Time Source
SKBO Decoded METAR 2020/01/24 03:00 UTC NOAA

Bogota / Eldorado, Colombia (SKBO) 04-43N 074-09W 2548M
Jan 23, 2020 - 10:00 PM EST / 2020.01.24 0300 UTC
Wind: from the NNW (330 degrees) at 8 MPH (7 KT):0
Visibility: greater than 7 mile(s):0
Sky conditions: partly cloudy
Temperature: 55 F (13 C)
Dew Point: 50 F (10 C)
Relative Humidity: 81%
Pressure (altimeter): 30.37 in. Hg (1028 hPa)
ob: SKBO 240300Z 33007KT 9999 SCT020 13/10 A3037 NOSIG
cycle: 3

Station Type Date Time Source
SKBO TAF 2020/01/23 18:54 UTC NOAA

TAF SKBO 231630Z 2318/2418 31010KT 9999 SCT020
TEMPO 2320/2323 6000 RADZ SCT018CB
BECMG 2402/2404 VRB02KT
TEMPO 2410/2412 5000 BCFG SCT012 TX22/2318Z TN09/2410Z

Example: see airport list